SJU weather

Luis Munoz Marin International Airport
San Juan, Puerto Rico

Public forecast

Using degrees Celsius for public forecast. Weather courtesy of forecast.io.

METAR (pilot weather report)

Retrieved 2019/03/25 04:56 UTC (47 minutes ago):

TJSJ 250456Z 11006KT 10SM SCT026 BKN055 24/22 A3005

TAF (pilot weather forecast)

Retrieved 2019/03/25 01:51 UTC (4 hours ago):

TAF TJSJ 250045Z 2501/2524 10008KT P6SM SCT030 TEMPO 2501/2502 5SM -SHRA BKN050 FM251400 11014KT P6SM SCT025 FM252300 09008KT P6SM SCT030